createdAt,value
2022-11-30T00:01:24.856Z,14.65
2022-11-30T00:03:56.608Z,16.88
2022-11-30T00:06:25.013Z,14.35
2022-11-30T00:08:57.538Z,14.40
2022-11-30T00:11:26.701Z,14.90
2022-11-30T00:13:54.171Z,14.77
2022-11-30T00:16:22.096Z,13.93
2022-11-30T00:18:49.847Z,15.07
2022-11-30T00:21:17.558Z,14.77
2022-11-30T00:23:46.939Z,12.20
2022-11-30T00:26:17.265Z,14.48
2022-11-30T00:28:47.998Z,13.60
2022-11-30T00:31:17.341Z,13.40
2022-11-30T00:33:44.950Z,14.70
2022-11-30T00:36:18.294Z,14.02
2022-11-30T00:38:46.218Z,13.98
2022-11-30T00:41:13.865Z,14.32
2022-11-30T00:43:41.522Z,14.00
2022-11-30T00:46:09.534Z,13.35
2022-11-30T00:48:37.784Z,14.15
2022-11-30T00:51:05.780Z,14.18
2022-11-30T00:53:33.163Z,13.63
2022-11-30T00:56:00.830Z,14.32
2022-11-30T00:58:28.544Z,12.90
2022-11-30T01:00:56.185Z,13.52
2022-11-30T01:03:23.674Z,12.85
2022-11-30T01:05:50.686Z,12.23
2022-11-30T01:08:18.263Z,12.80
2022-11-30T01:10:47.524Z,12.70
2022-11-30T01:13:15.272Z,12.23
2022-11-30T01:15:44.528Z,13.20
2022-11-30T01:18:12.346Z,12.48
2022-11-30T01:20:43.584Z,13.40
2022-11-30T01:23:11.425Z,12.77
2022-11-30T01:25:39.108Z,12.50
2022-11-30T01:28:06.750Z,13.27
2022-11-30T01:30:34.266Z,12.82
2022-11-30T01:33:06.058Z,12.35
2022-11-30T01:35:33.544Z,11.18
2022-11-30T01:38:00.974Z,12.10
2022-11-30T01:40:28.421Z,12.50
2022-11-30T01:42:55.846Z,11.50
2022-11-30T01:45:23.360Z,12.25
2022-11-30T01:47:56.205Z,12.23
2022-11-30T01:50:34.626Z,12.07
2022-11-30T01:53:03.948Z,12.32
2022-11-30T01:55:43.443Z,12.55
2022-11-30T01:58:26.083Z,11.60
2022-11-30T02:00:53.825Z,12.23
2022-11-30T02:03:39.106Z,11.15
2022-11-30T02:06:06.501Z,12.60
2022-11-30T02:08:34.099Z,12.25
2022-11-30T02:11:06.410Z,12.18
2022-11-30T02:16:41.235Z,11.73
2022-11-30T02:19:08.733Z,12.68
2022-11-30T02:21:51.207Z,11.27
2022-11-30T02:25:08.786Z,12.05
2022-11-30T02:28:08.799Z,11.70
2022-11-30T02:30:40.999Z,11.18
2022-11-30T02:35:50.326Z,11.13
2022-11-30T02:38:22.943Z,12.52
2022-11-30T02:40:53.245Z,12.02
2022-11-30T02:43:24.490Z,10.80
2022-11-30T02:45:58.743Z,11.18
2022-11-30T02:48:42.746Z,9.82
2022-11-30T02:51:14.916Z,10.90
2022-11-30T02:56:09.625Z,11.13
2022-11-30T02:58:37.074Z,11.07
2022-11-30T03:01:04.462Z,11.02
2022-11-30T03:03:31.918Z,10.93
2022-11-30T03:05:59.299Z,10.15
2022-11-30T03:08:26.697Z,11.13
2022-11-30T03:10:54.120Z,10.75
2022-11-30T03:13:21.566Z,11.15
2022-11-30T03:15:49.144Z,9.85
2022-11-30T03:18:16.642Z,10.40
2022-11-30T03:20:43.971Z,9.98
2022-11-30T03:23:11.344Z,10.13
2022-11-30T03:25:41.560Z,9.88
2022-11-30T03:28:08.924Z,10.95
2022-11-30T03:30:36.311Z,12.02
2022-11-30T03:33:03.718Z,10.65
2022-11-30T03:35:31.165Z,10.20
2022-11-30T03:37:58.567Z,9.40
2022-11-30T03:40:25.954Z,9.23
2022-11-30T03:42:53.300Z,11.00
2022-11-30T03:45:20.657Z,9.52
2022-11-30T03:47:50.320Z,10.15
2022-11-30T03:50:17.671Z,9.75
2022-11-30T03:52:45.063Z,9.18
2022-11-30T03:55:12.434Z,9.73
2022-11-30T03:57:39.888Z,9.85
2022-11-30T04:00:08.057Z,10.18
2022-11-30T04:02:44.435Z,8.20
2022-11-30T04:05:12.383Z,9.65
2022-11-30T04:07:39.481Z,10.70
2022-11-30T04:10:08.773Z,9.20
2022-11-30T04:12:36.315Z,8.98
2022-11-30T04:15:04.051Z,8.98
2022-11-30T04:17:31.459Z,10.20
2022-11-30T04:19:58.844Z,9.73
2022-11-30T04:22:26.323Z,8.77
2022-11-30T04:24:53.736Z,9.30
2022-11-30T04:27:21.054Z,8.05
2022-11-30T04:29:48.446Z,9.60
2022-11-30T04:32:15.871Z,9.90
2022-11-30T04:34:44.351Z,9.90
2022-11-30T04:37:11.920Z,8.82
2022-11-30T04:39:39.343Z,8.90
2022-11-30T04:42:06.341Z,8.73
2022-11-30T04:44:33.705Z,9.70
2022-11-30T04:47:01.297Z,8.75
2022-11-30T04:49:28.678Z,9.07
2022-11-30T04:51:56.077Z,8.68
2022-11-30T04:54:23.442Z,9.43
2022-11-30T04:56:50.820Z,8.32
2022-11-30T04:59:18.183Z,9.18
2022-11-30T05:01:45.580Z,9.23
2022-11-30T05:04:12.981Z,7.95
2022-11-30T05:06:40.344Z,7.97
2022-11-30T05:09:07.766Z,9.32
2022-11-30T05:11:35.184Z,8.63
2022-11-30T05:14:02.572Z,8.30
2022-11-30T05:16:30.167Z,9.00
2022-11-30T05:18:57.538Z,8.80
2022-11-30T05:21:24.918Z,8.40
2022-11-30T05:23:52.369Z,8.73
2022-11-30T05:26:19.776Z,8.82
2022-11-30T05:28:47.168Z,8.98
2022-11-30T05:31:14.596Z,8.73
2022-11-30T05:33:41.987Z,8.77
2022-11-30T05:36:10.938Z,8.90
2022-11-30T05:38:38.598Z,9.57
2022-11-30T05:41:06.096Z,8.95
2022-11-30T05:43:33.478Z,9.18
2022-11-30T05:46:02.184Z,9.10
2022-11-30T05:48:29.864Z,8.95
2022-11-30T05:51:09.938Z,8.68
2022-11-30T05:53:37.375Z,9.10
2022-11-30T05:56:07.193Z,7.72
2022-11-30T05:58:34.809Z,8.27
2022-11-30T06:01:02.232Z,8.50
2022-11-30T06:03:33.239Z,8.32
2022-11-30T06:06:00.721Z,8.68
2022-11-30T06:08:28.522Z,8.85
2022-11-30T06:10:59.591Z,8.43
2022-11-30T06:13:28.950Z,8.43
2022-11-30T06:16:03.059Z,7.78
2022-11-30T06:18:30.997Z,8.50
2022-11-30T06:21:07.255Z,8.10
2022-11-30T06:23:34.917Z,8.52
2022-11-30T06:26:07.869Z,8.35
2022-11-30T06:28:35.815Z,7.10
2022-11-30T06:31:05.655Z,7.95
2022-11-30T06:33:34.094Z,7.93
2022-11-30T06:36:01.185Z,9.20
2022-11-30T06:38:28.127Z,8.57
2022-11-30T06:40:55.503Z,7.72
2022-11-30T06:43:22.413Z,8.27
2022-11-30T06:45:49.311Z,9.75
2022-11-30T06:48:16.265Z,8.50
2022-11-30T06:50:49.703Z,10.27
2022-11-30T06:53:16.677Z,9.15
2022-11-30T06:55:43.524Z,9.68
2022-11-30T06:58:11.030Z,8.57
2022-11-30T07:00:39.045Z,10.23
2022-11-30T07:03:06.778Z,9.98
2022-11-30T07:05:40.806Z,9.63
2022-11-30T07:08:07.829Z,9.13
2022-11-30T07:10:36.302Z,10.52
2022-11-30T07:13:03.192Z,10.25
2022-11-30T07:15:30.657Z,11.43
2022-11-30T07:18:01.180Z,10.15
2022-11-30T07:20:28.366Z,10.85
2022-11-30T07:23:18.713Z,10.23
2022-11-30T07:26:04.338Z,10.82
2022-11-30T07:28:31.261Z,10.70
2022-11-30T07:30:58.126Z,12.55
2022-11-30T07:33:24.980Z,12.82
2022-11-30T07:35:54.536Z,13.30
2022-11-30T07:38:21.647Z,13.77
2022-11-30T07:40:48.550Z,14.07
2022-11-30T07:43:15.720Z,14.50
2022-11-30T07:45:42.634Z,13.63
2022-11-30T07:48:09.992Z,13.30
2022-11-30T07:50:36.862Z,13.43
2022-11-30T07:53:03.953Z,12.90
2022-11-30T07:55:31.669Z,12.93
2022-11-30T07:57:58.963Z,14.75
2022-11-30T08:00:25.996Z,13.82
2022-11-30T08:02:53.058Z,13.18
2022-11-30T08:05:20.033Z,12.73
2022-11-30T08:07:52.503Z,14.30
2022-11-30T08:10:21.963Z,13.23
2022-11-30T08:12:49.286Z,13.13
2022-11-30T08:15:20.377Z,13.23
2022-11-30T08:17:50.357Z,13.80
2022-11-30T08:20:17.375Z,14.02
2022-11-30T08:22:44.701Z,13.98
2022-11-30T08:25:11.651Z,14.77
2022-11-30T08:27:38.721Z,15.15
2022-11-30T08:30:06.728Z,13.40
2022-11-30T08:32:34.017Z,13.68
2022-11-30T08:35:00.933Z,13.50
2022-11-30T08:37:28.188Z,12.02
2022-11-30T08:39:55.083Z,15.30
2022-11-30T08:42:22.338Z,11.88
2022-11-30T08:44:49.200Z,13.63
2022-11-30T08:47:16.517Z,13.23
2022-11-30T08:49:43.879Z,12.90
2022-11-30T08:52:18.600Z,11.20
2022-11-30T08:54:48.102Z,12.90
2022-11-30T08:57:21.311Z,13.35
2022-11-30T08:59:48.808Z,14.02
2022-11-30T09:02:18.537Z,12.88
2022-11-30T09:04:49.382Z,13.15
2022-11-30T09:07:17.093Z,11.57
2022-11-30T09:09:44.400Z,12.38
2022-11-30T09:12:11.730Z,10.80
2022-11-30T09:14:38.978Z,13.65
2022-11-30T09:17:09.288Z,12.45
2022-11-30T09:19:36.602Z,12.32
2022-11-30T09:22:03.604Z,12.57
2022-11-30T09:24:30.897Z,11.70
2022-11-30T09:26:58.232Z,12.00
2022-11-30T09:29:25.205Z,11.25
2022-11-30T09:31:52.584Z,10.75
2022-11-30T09:34:19.746Z,11.10
2022-11-30T09:36:47.057Z,8.55
2022-11-30T09:39:14.067Z,9.25
2022-11-30T09:42:11.636Z,11.07
2022-11-30T09:45:19.452Z,10.68
2022-11-30T09:48:18.241Z,10.88
2022-11-30T09:50:48.120Z,10.70
2022-11-30T09:53:40.480Z,10.18
2022-11-30T09:56:26.300Z,10.23
2022-11-30T09:59:08.355Z,9.70
2022-11-30T10:01:37.568Z,9.98
2022-11-30T10:04:05.171Z,10.18
2022-11-30T10:06:45.893Z,9.00
2022-11-30T10:09:33.771Z,7.57
2022-11-30T10:12:13.393Z,9.80
2022-11-30T10:15:25.368Z,7.75
2022-11-30T10:18:21.854Z,10.07
2022-11-30T10:21:06.736Z,9.88
2022-11-30T10:23:40.765Z,9.52
2022-11-30T10:26:12.549Z,9.10
2022-11-30T10:28:54.042Z,10.05
2022-11-30T10:31:36.859Z,9.35
2022-11-30T10:34:21.438Z,9.77
2022-11-30T10:37:04.535Z,10.02
2022-11-30T10:39:39.156Z,9.48
2022-11-30T10:42:30.784Z,10.20
2022-11-30T10:45:06.303Z,9.03
2022-11-30T10:47:37.117Z,9.82
2022-11-30T10:50:09.966Z,8.88
2022-11-30T10:52:47.494Z,7.63
2022-11-30T10:55:22.592Z,8.60
2022-11-30T10:57:56.061Z,9.10
2022-11-30T11:00:23.455Z,8.68
2022-11-30T11:02:52.001Z,8.88
2022-11-30T11:05:25.893Z,8.25
2022-11-30T11:08:18.634Z,9.40
2022-11-30T11:10:51.629Z,7.22
2022-11-30T11:13:43.901Z,8.18
2022-11-30T11:16:14.359Z,7.68
2022-11-30T11:18:56.635Z,8.90
2022-11-30T11:21:24.537Z,8.70
2022-11-30T11:23:57.407Z,8.88
2022-11-30T11:26:29.494Z,8.52
2022-11-30T11:28:59.560Z,8.20
2022-11-30T11:31:46.409Z,8.52
2022-11-30T11:34:32.681Z,8.32
2022-11-30T11:37:23.023Z,7.80
2022-11-30T11:40:00.618Z,8.23
2022-11-30T11:42:33.615Z,8.10
2022-11-30T11:45:02.540Z,7.40
2022-11-30T11:47:42.842Z,7.47
2022-11-30T11:50:12.919Z,7.50
2022-11-30T11:52:39.957Z,8.27
2022-11-30T11:55:17.808Z,8.50
2022-11-30T11:57:58.785Z,9.57
2022-11-30T12:00:26.085Z,8.98
2022-11-30T12:03:17.340Z,6.63
2022-11-30T12:06:20.137Z,7.47
2022-11-30T12:11:28.480Z,9.68
2022-11-30T12:13:55.785Z,7.90
2022-11-30T12:16:49.866Z,8.95
2022-11-30T12:19:50.018Z,9.40
2022-11-30T12:22:44.033Z,10.30
2022-11-30T12:25:28.330Z,10.00
2022-11-30T12:28:25.238Z,8.55
2022-11-30T12:31:18.330Z,9.27
2022-11-30T12:34:53.219Z,9.35
2022-11-30T12:38:10.327Z,9.60
2022-11-30T12:41:05.676Z,9.88
2022-11-30T12:44:01.437Z,11.05
2022-11-30T12:47:00.720Z,10.55
2022-11-30T12:50:18.517Z,10.27
2022-11-30T12:53:16.023Z,9.73
2022-11-30T12:56:10.860Z,9.05
2022-11-30T12:59:23.855Z,11.32
2022-11-30T13:02:07.754Z,10.30
2022-11-30T13:04:47.153Z,9.18
2022-11-30T13:07:50.277Z,11.55
2022-11-30T13:10:30.470Z,9.45
2022-11-30T13:13:04.295Z,11.63
2022-11-30T13:15:35.047Z,11.20
2022-11-30T13:18:03.566Z,9.43
2022-11-30T13:21:04.843Z,11.63
2022-11-30T13:23:48.007Z,10.65
2022-11-30T13:26:37.661Z,10.77
2022-11-30T13:29:17.427Z,10.30
2022-11-30T13:32:33.921Z,10.32
2022-11-30T13:35:28.008Z,11.10
2022-11-30T13:41:08.802Z,9.50
2022-11-30T13:43:44.802Z,10.75
2022-11-30T13:46:21.275Z,10.73
2022-11-30T13:48:49.074Z,10.65
2022-11-30T13:51:38.239Z,11.93
2022-11-30T13:54:58.239Z,10.55
2022-11-30T13:57:28.669Z,11.27
2022-11-30T14:00:05.047Z,11.57
2022-11-30T14:02:41.937Z,10.27
2022-11-30T14:05:18.117Z,9.70
2022-11-30T14:07:47.606Z,10.75
2022-11-30T14:10:41.818Z,11.68
2022-11-30T14:13:09.729Z,11.23
2022-11-30T14:15:40.653Z,10.27
2022-11-30T14:18:10.557Z,10.35
2022-11-30T14:21:02.510Z,11.15
2022-11-30T14:24:12.200Z,11.63
2022-11-30T14:26:43.681Z,10.35
2022-11-30T14:29:25.137Z,9.77
2022-11-30T14:31:59.065Z,9.63
2022-11-30T14:34:32.331Z,9.70
2022-11-30T14:37:37.774Z,10.57
2022-11-30T14:40:07.039Z,9.63
2022-11-30T14:42:35.513Z,11.07
2022-11-30T14:45:03.413Z,11.38
2022-11-30T14:47:35.771Z,11.88
2022-11-30T14:52:51.932Z,11.75
2022-11-30T14:55:43.745Z,11.05
2022-11-30T14:58:53.371Z,11.50
2022-11-30T15:01:30.709Z,11.82
2022-11-30T15:04:07.174Z,10.68
2022-11-30T15:06:34.121Z,12.02
2022-11-30T15:09:02.403Z,8.02
2022-11-30T15:11:30.071Z,11.88
2022-11-30T15:14:08.549Z,13.55
2022-11-30T15:16:36.006Z,11.48
2022-11-30T15:19:28.770Z,11.13
2022-11-30T15:21:57.765Z,11.27
2022-11-30T15:24:26.076Z,9.82
2022-11-30T15:27:10.211Z,10.30
2022-11-30T15:29:53.845Z,10.18
2022-11-30T15:32:24.095Z,10.30
2022-11-30T15:34:57.707Z,10.73
2022-11-30T15:37:31.001Z,10.45
2022-11-30T15:40:01.578Z,10.35
2022-11-30T15:42:41.355Z,10.07
2022-11-30T15:45:31.323Z,11.07
2022-11-30T15:48:00.507Z,9.52
2022-11-30T15:50:29.957Z,8.85
2022-11-30T15:53:03.713Z,9.27
2022-11-30T15:55:44.138Z,10.20
2022-11-30T15:58:24.773Z,9.63
2022-11-30T16:01:22.646Z,7.63
2022-11-30T16:03:56.100Z,7.72
2022-11-30T16:06:26.660Z,9.25
2022-11-30T16:08:55.168Z,8.57
2022-11-30T16:11:22.968Z,7.70
2022-11-30T16:13:49.951Z,8.10
2022-11-30T16:16:29.664Z,8.20
2022-11-30T16:18:56.807Z,7.88
2022-11-30T16:21:23.711Z,7.93
2022-11-30T16:23:50.694Z,8.43
2022-11-30T16:29:06.663Z,9.77
2022-11-30T16:31:35.042Z,9.95
2022-11-30T16:34:02.042Z,8.93
2022-11-30T16:36:30.357Z,9.23
2022-11-30T16:38:57.686Z,8.75
2022-11-30T16:41:26.918Z,8.00
2022-11-30T16:43:56.580Z,8.40
2022-11-30T16:46:26.857Z,8.18
2022-11-30T16:48:54.347Z,8.55
2022-11-30T16:51:31.577Z,7.55
2022-11-30T16:53:58.596Z,10.27
2022-11-30T16:56:25.684Z,8.73
2022-11-30T16:58:52.735Z,10.50
2022-11-30T17:01:35.542Z,9.63
2022-11-30T17:04:26.372Z,8.77
2022-11-30T17:07:00.562Z,9.63
2022-11-30T17:09:30.470Z,9.02
2022-11-30T17:11:57.978Z,7.68
2022-11-30T17:14:25.139Z,7.30
2022-11-30T17:16:52.657Z,7.78
2022-11-30T17:19:20.485Z,8.25
2022-11-30T17:21:50.886Z,7.55
2022-11-30T17:24:17.876Z,7.43
2022-11-30T17:26:47.371Z,8.93
2022-11-30T17:29:14.266Z,9.35
2022-11-30T17:31:43.427Z,8.02
2022-11-30T17:34:10.400Z,8.15
2022-11-30T17:36:37.367Z,8.40
2022-11-30T17:39:07.046Z,8.45
2022-11-30T17:41:34.552Z,8.57
2022-11-30T17:44:02.753Z,8.77
2022-11-30T17:46:30.119Z,10.07
2022-11-30T17:48:57.262Z,9.98
2022-11-30T17:51:24.610Z,8.85
2022-11-30T17:53:51.749Z,8.38
2022-11-30T17:56:18.711Z,9.02
2022-11-30T17:58:47.223Z,7.22
2022-11-30T18:01:21.555Z,9.05
2022-11-30T18:03:48.934Z,9.65
2022-11-30T18:06:16.629Z,8.35
2022-11-30T18:08:44.448Z,9.50
2022-11-30T18:11:17.898Z,8.73
2022-11-30T18:13:44.968Z,6.88
2022-11-30T18:16:18.851Z,8.15
2022-11-30T18:18:48.350Z,9.57
2022-11-30T18:21:19.132Z,8.88
2022-11-30T18:23:46.953Z,8.15
2022-11-30T18:26:17.584Z,9.50
2022-11-30T18:28:46.022Z,9.75
2022-11-30T18:31:13.566Z,10.13
2022-11-30T18:33:41.159Z,7.95
2022-11-30T18:36:08.868Z,8.63
2022-11-30T18:38:38.443Z,9.48
2022-11-30T18:41:06.595Z,8.27
2022-11-30T18:43:34.776Z,8.20
2022-11-30T18:46:10.769Z,9.63
2022-11-30T18:48:39.529Z,8.95
2022-11-30T18:51:23.924Z,8.75
2022-11-30T18:53:59.329Z,7.82
2022-11-30T18:56:30.219Z,7.40
2022-11-30T18:59:03.680Z,8.57
2022-11-30T19:01:31.925Z,9.02
2022-11-30T19:04:04.893Z,8.63
2022-11-30T19:06:33.142Z,8.02
2022-11-30T19:09:06.224Z,9.23
2022-11-30T19:11:33.921Z,7.88
2022-11-30T19:14:02.239Z,8.52
2022-11-30T19:16:30.691Z,9.15
2022-11-30T19:19:05.571Z,8.52
2022-11-30T19:21:33.134Z,7.30
2022-11-30T19:24:00.648Z,9.52
2022-11-30T19:26:28.366Z,8.38
2022-11-30T19:28:57.180Z,7.20
2022-11-30T19:31:24.968Z,9.18
2022-11-30T19:33:54.596Z,8.55
2022-11-30T19:36:27.542Z,8.02
2022-11-30T19:38:55.215Z,8.95
2022-11-30T19:41:22.583Z,7.80
2022-11-30T19:44:01.260Z,8.10
2022-11-30T19:46:31.696Z,7.82
2022-11-30T19:49:01.042Z,7.28
2022-11-30T19:51:29.230Z,8.23
2022-11-30T19:53:57.488Z,8.10
2022-11-30T19:56:26.110Z,7.10
2022-11-30T19:58:56.899Z,7.72
2022-11-30T20:01:27.732Z,8.48
2022-11-30T20:03:58.087Z,6.95
2022-11-30T20:06:28.650Z,7.30
2022-11-30T20:08:55.898Z,6.55
2022-11-30T20:11:23.303Z,6.82
2022-11-30T20:13:51.372Z,6.80
2022-11-30T20:16:21.544Z,7.80
2022-11-30T20:18:57.727Z,6.90
2022-11-30T20:21:28.274Z,7.93
2022-11-30T20:24:00.424Z,6.68
2022-11-30T20:26:36.857Z,6.88
2022-11-30T20:29:06.485Z,6.05
2022-11-30T20:31:36.220Z,6.75
2022-11-30T20:34:03.651Z,7.18
2022-11-30T20:36:31.048Z,6.07
2022-11-30T20:38:59.290Z,6.22
2022-11-30T20:41:26.926Z,6.38
2022-11-30T20:43:54.624Z,6.88
2022-11-30T20:46:27.510Z,7.28
2022-11-30T20:48:55.508Z,6.00
2022-11-30T20:51:31.714Z,6.70
2022-11-30T20:54:02.162Z,6.35
2022-11-30T20:56:29.380Z,7.05
2022-11-30T20:58:56.788Z,6.00
2022-11-30T21:01:24.432Z,5.88
2022-11-30T21:03:51.993Z,6.50
2022-11-30T21:06:18.879Z,6.90
2022-11-30T21:08:48.853Z,7.50
2022-11-30T21:11:19.817Z,7.75
2022-11-30T21:13:49.926Z,6.03
2022-11-30T21:16:27.146Z,8.55
2022-11-30T21:18:56.430Z,6.95
2022-11-30T21:21:27.458Z,8.07
2022-11-30T21:23:54.892Z,7.00
2022-11-30T21:26:42.708Z,8.40
2022-11-30T21:29:17.563Z,7.97
2022-11-30T21:31:45.347Z,7.85
2022-11-30T21:34:12.672Z,7.65
2022-11-30T21:36:40.303Z,7.38
2022-11-30T21:39:07.836Z,7.28
2022-11-30T21:41:39.420Z,8.43
2022-11-30T21:44:11.019Z,7.63
2022-11-30T21:46:38.784Z,7.63
2022-11-30T21:49:06.196Z,7.22
2022-11-30T21:51:33.741Z,8.68
2022-11-30T21:54:04.897Z,9.35
2022-11-30T21:56:35.473Z,9.05
2022-11-30T21:59:05.711Z,10.40
2022-11-30T22:01:39.333Z,8.70
2022-11-30T22:04:08.707Z,8.77
2022-11-30T22:06:37.885Z,10.25
2022-11-30T22:09:10.349Z,8.10
2022-11-30T22:11:40.650Z,10.30
2022-11-30T22:14:12.168Z,10.25
2022-11-30T22:16:39.596Z,8.55
2022-11-30T22:19:07.337Z,9.75
2022-11-30T22:21:34.927Z,10.13
2022-11-30T22:24:07.569Z,9.02
2022-11-30T22:26:40.601Z,9.65
2022-11-30T22:29:19.046Z,9.18
2022-11-30T22:31:48.720Z,10.25
2022-11-30T22:34:16.089Z,10.45
2022-11-30T22:36:44.983Z,9.88
2022-11-30T22:39:14.997Z,10.70
2022-11-30T22:41:45.082Z,10.32
2022-11-30T22:44:17.221Z,10.13
2022-11-30T22:46:44.762Z,10.75
2022-11-30T22:49:19.967Z,10.65
2022-11-30T22:51:48.655Z,10.15
2022-11-30T22:54:16.218Z,12.00
2022-11-30T22:56:43.195Z,9.52
2022-11-30T22:59:15.999Z,12.73
2022-11-30T23:01:45.955Z,11.95
2022-11-30T23:04:17.836Z,10.60
2022-11-30T23:06:47.020Z,10.38
2022-11-30T23:09:21.228Z,10.55
2022-11-30T23:11:51.477Z,10.57
2022-11-30T23:14:19.325Z,10.27
2022-11-30T23:16:47.983Z,9.95
2022-11-30T23:19:15.563Z,11.10
2022-11-30T23:21:47.165Z,11.07
2022-11-30T23:24:20.296Z,10.05
2022-11-30T23:26:48.144Z,9.70
2022-11-30T23:29:16.711Z,11.77
2022-11-30T23:31:45.347Z,11.13
2022-11-30T23:34:21.836Z,10.38
2022-11-30T23:36:50.887Z,9.85
2022-11-30T23:39:19.519Z,10.23
2022-11-30T23:41:56.471Z,11.57
2022-11-30T23:44:23.721Z,10.75
2022-11-30T23:46:51.065Z,11.20
2022-11-30T23:49:18.386Z,10.70
2022-11-30T23:51:45.403Z,10.43
2022-11-30T23:54:12.665Z,11.20
2022-11-30T23:56:39.625Z,10.93
2022-11-30T23:59:06.924Z,10.85
